createdAt,value
2023-05-05T00:00:23.685Z,7.60
2023-05-05T00:02:50.911Z,7.70
2023-05-05T00:05:18.377Z,7.70
2023-05-05T00:07:45.726Z,7.60
2023-05-05T00:10:12.817Z,7.60
2023-05-05T00:12:40.050Z,7.60
2023-05-05T00:15:08.095Z,7.60
2023-05-05T00:17:35.520Z,7.50
2023-05-05T00:20:03.033Z,7.50
2023-05-05T00:22:30.580Z,7.40
2023-05-05T00:24:58.180Z,7.20
2023-05-05T00:27:25.821Z,7.10
2023-05-05T00:29:52.929Z,7.00
2023-05-05T00:32:20.332Z,6.80
2023-05-05T00:34:47.745Z,6.90
2023-05-05T00:37:15.026Z,6.90
2023-05-05T00:39:42.527Z,6.80
2023-05-05T00:42:09.929Z,7.00
2023-05-05T00:44:41.850Z,7.00
2023-05-05T00:47:09.718Z,7.00
2023-05-05T00:49:37.296Z,7.00
2023-05-05T00:52:05.038Z,7.20
2023-05-05T00:54:32.791Z,6.90
2023-05-05T00:56:59.894Z,6.80
2023-05-05T00:59:27.460Z,6.70
2023-05-05T01:01:54.860Z,6.80
2023-05-05T01:04:22.362Z,6.90
2023-05-05T01:07:30.924Z,7.00
2023-05-05T01:10:19.853Z,7.20
2023-05-05T01:13:20.609Z,7.00
2023-05-05T01:16:09.557Z,7.10
2023-05-05T01:19:47.846Z,7.20
2023-05-05T01:22:15.537Z,7.10
2023-05-05T01:25:04.307Z,7.20
2023-05-05T01:27:50.933Z,6.90
2023-05-05T01:31:15.238Z,6.70
2023-05-05T01:33:48.640Z,6.60
2023-05-05T01:36:26.513Z,6.60
2023-05-05T01:38:57.481Z,6.60
2023-05-05T01:41:27.631Z,6.70
2023-05-05T01:43:55.121Z,6.70
2023-05-05T01:46:23.116Z,6.70
2023-05-05T01:48:50.405Z,6.80
2023-05-05T01:51:18.561Z,6.70
2023-05-05T01:53:47.504Z,6.50
2023-05-05T01:56:15.862Z,6.60
2023-05-05T01:58:44.080Z,6.70
2023-05-05T02:01:11.468Z,6.60
2023-05-05T02:03:39.027Z,6.50
2023-05-05T02:06:06.679Z,6.50
2023-05-05T02:08:35.175Z,6.30
2023-05-05T02:11:02.543Z,6.40
2023-05-05T02:13:31.204Z,6.50
2023-05-05T02:15:58.651Z,6.40
2023-05-05T02:18:26.243Z,6.20
2023-05-05T02:20:53.586Z,6.10
2023-05-05T02:23:21.123Z,6.10
2023-05-05T02:25:50.928Z,5.90
2023-05-05T02:28:23.593Z,6.10
2023-05-05T02:30:57.724Z,6.10
2023-05-05T02:33:25.909Z,6.10
2023-05-05T02:35:54.311Z,5.80
2023-05-05T02:38:22.311Z,5.70
2023-05-05T02:40:49.649Z,5.70
2023-05-05T02:43:18.740Z,5.70
2023-05-05T02:45:46.372Z,5.60
2023-05-05T02:48:13.870Z,5.50
2023-05-05T02:50:41.248Z,5.70
2023-05-05T02:53:08.635Z,5.80
2023-05-05T02:55:48.500Z,5.70
2023-05-05T02:58:38.450Z,5.70
2023-05-05T03:01:16.589Z,5.70
2023-05-05T03:04:07.050Z,5.60
2023-05-05T03:06:40.245Z,5.60
2023-05-05T03:09:21.783Z,5.60
2023-05-05T03:12:04.857Z,5.70
2023-05-05T03:14:36.805Z,5.50
2023-05-05T03:17:04.225Z,5.50
2023-05-05T03:19:31.686Z,5.60
2023-05-05T03:21:59.252Z,5.70
2023-05-05T03:24:26.476Z,5.70
2023-05-05T03:26:54.153Z,5.70
2023-05-05T03:29:21.601Z,5.60
2023-05-05T03:31:49.344Z,5.60
2023-05-05T03:34:16.766Z,5.50
2023-05-05T03:36:44.134Z,5.30
2023-05-05T03:39:11.494Z,5.30
2023-05-05T03:41:38.861Z,5.30
2023-05-05T03:44:06.266Z,5.40
2023-05-05T03:46:33.507Z,5.20
2023-05-05T03:49:00.882Z,5.00
2023-05-05T03:51:28.232Z,5.20
2023-05-05T03:53:55.785Z,5.20
2023-05-05T03:56:23.286Z,5.10
2023-05-05T03:58:51.174Z,5.20
2023-05-05T04:01:18.562Z,5.30
2023-05-05T04:03:46.504Z,5.30
2023-05-05T04:06:13.722Z,5.10
2023-05-05T04:08:41.015Z,5.10
2023-05-05T04:11:08.389Z,5.20
2023-05-05T04:13:35.678Z,5.30
2023-05-05T04:16:02.871Z,5.30
2023-05-05T04:18:30.353Z,5.30
2023-05-05T04:20:57.702Z,5.20
2023-05-05T04:23:25.101Z,5.20
2023-05-05T04:25:52.463Z,5.30
2023-05-05T04:28:21.767Z,5.40
2023-05-05T04:30:50.314Z,5.40
2023-05-05T04:33:17.566Z,5.60
2023-05-05T04:35:44.868Z,5.70
2023-05-05T04:38:12.267Z,5.80
2023-05-05T04:40:41.431Z,5.90
2023-05-05T04:43:08.938Z,5.90
2023-05-05T04:45:36.452Z,5.80
2023-05-05T04:48:05.639Z,5.90
2023-05-05T04:50:33.081Z,6.00
2023-05-05T04:53:00.566Z,6.10
2023-05-05T04:55:28.532Z,6.10
2023-05-05T04:57:55.950Z,6.10
2023-05-05T05:00:23.660Z,6.20
2023-05-05T05:02:50.848Z,6.40
2023-05-05T05:05:18.403Z,6.70
2023-05-05T05:07:46.461Z,6.80
2023-05-05T05:10:13.843Z,6.90
2023-05-05T05:12:41.301Z,7.10
2023-05-05T05:15:09.826Z,7.40
2023-05-05T05:17:37.008Z,7.40
2023-05-05T05:20:05.255Z,7.50
2023-05-05T05:22:32.827Z,7.70
2023-05-05T05:25:00.204Z,7.80
2023-05-05T05:27:27.547Z,7.80
2023-05-05T05:29:54.796Z,7.90
2023-05-05T05:32:22.171Z,8.20
2023-05-05T05:34:49.617Z,8.20
2023-05-05T05:37:16.784Z,8.40
2023-05-05T05:39:43.945Z,8.60
2023-05-05T05:42:11.140Z,8.70
2023-05-05T05:44:38.616Z,8.80
2023-05-05T05:47:06.265Z,9.00
2023-05-05T05:49:33.521Z,9.30
2023-05-05T05:52:00.889Z,9.20
2023-05-05T05:54:28.222Z,9.30
2023-05-05T05:56:55.573Z,9.40
2023-05-05T05:59:22.980Z,9.60
2023-05-05T06:01:50.069Z,10.00
2023-05-05T06:04:17.465Z,10.40
2023-05-05T06:06:45.151Z,10.90
2023-05-05T06:09:12.498Z,11.50
2023-05-05T06:11:39.915Z,11.80
2023-05-05T06:14:07.251Z,12.20
2023-05-05T06:16:35.102Z,12.50
2023-05-05T06:19:02.436Z,12.70
2023-05-05T06:21:30.233Z,13.10
2023-05-05T06:23:57.391Z,13.60
2023-05-05T06:26:24.772Z,14.10
2023-05-05T06:28:52.084Z,14.60
2023-05-05T06:31:19.471Z,15.20
2023-05-05T06:33:47.140Z,15.90
2023-05-05T06:36:14.580Z,16.30
2023-05-05T06:38:42.065Z,16.50
2023-05-05T06:41:09.505Z,17.00
2023-05-05T06:43:36.745Z,17.10
2023-05-05T06:46:04.407Z,17.90
2023-05-05T06:48:32.043Z,18.30
2023-05-05T06:50:59.645Z,18.50
2023-05-05T06:53:26.790Z,19.20
2023-05-05T06:55:54.093Z,19.30
2023-05-05T06:58:22.090Z,19.40
2023-05-05T07:00:49.367Z,20.20
2023-05-05T07:03:35.245Z,20.30
2023-05-05T07:06:02.662Z,20.80
2023-05-05T07:08:29.864Z,19.90
2023-05-05T07:10:57.317Z,20.00
2023-05-05T07:13:24.810Z,20.40
2023-05-05T07:15:51.933Z,20.40
2023-05-05T07:18:20.886Z,20.20
2023-05-05T07:20:49.089Z,19.80
2023-05-05T07:23:16.382Z,20.10
2023-05-05T07:25:44.409Z,19.90
2023-05-05T07:28:11.850Z,19.90
2023-05-05T07:30:39.261Z,19.90
2023-05-05T07:33:07.171Z,19.40
2023-05-05T07:35:34.529Z,19.30
2023-05-05T07:38:02.012Z,19.50
2023-05-05T07:40:29.240Z,19.40
2023-05-05T07:42:56.822Z,19.60
2023-05-05T07:45:24.418Z,19.60
2023-05-05T07:47:51.937Z,19.60
2023-05-05T07:50:19.489Z,19.90
2023-05-05T07:52:51.776Z,20.10
2023-05-05T07:55:26.722Z,19.80
2023-05-05T07:57:54.228Z,19.80
2023-05-05T08:00:22.147Z,19.90
2023-05-05T08:02:49.733Z,20.00
2023-05-05T08:05:17.347Z,19.70
2023-05-05T08:07:44.549Z,19.60
2023-05-05T08:10:12.468Z,19.60
2023-05-05T08:12:40.372Z,19.90
2023-05-05T08:15:08.827Z,20.00
2023-05-05T08:17:47.564Z,20.10
2023-05-05T08:20:16.096Z,20.10
2023-05-05T08:22:43.565Z,20.50
2023-05-05T08:25:11.466Z,20.60
2023-05-05T08:27:39.283Z,20.30
2023-05-05T08:30:07.076Z,20.40
2023-05-05T08:32:34.542Z,20.30
2023-05-05T08:35:03.595Z,20.20
2023-05-05T08:37:31.259Z,20.20
2023-05-05T08:39:58.942Z,20.20
2023-05-05T08:42:37.091Z,20.30
2023-05-05T08:45:06.880Z,20.30
2023-05-05T08:47:36.452Z,20.50
2023-05-05T08:50:05.949Z,20.40
2023-05-05T08:52:40.822Z,20.40
2023-05-05T08:55:14.973Z,20.70
2023-05-05T08:57:46.892Z,20.60
2023-05-05T09:00:14.958Z,20.40
2023-05-05T09:02:43.149Z,20.70
2023-05-05T09:05:19.777Z,20.70
2023-05-05T09:07:47.610Z,21.00
2023-05-05T09:10:15.418Z,21.10
2023-05-05T09:12:43.073Z,21.00
2023-05-05T09:15:11.899Z,21.20
2023-05-05T09:17:39.750Z,21.00
2023-05-05T09:20:14.286Z,21.00
2023-05-05T09:22:45.876Z,21.30
2023-05-05T09:25:15.199Z,21.30
2023-05-05T09:27:46.189Z,21.20
2023-05-05T09:30:17.187Z,21.30
2023-05-05T09:32:52.657Z,21.50
2023-05-05T09:35:20.378Z,21.50
2023-05-05T09:37:47.931Z,21.50
2023-05-05T09:40:17.975Z,21.50
2023-05-05T09:42:47.555Z,21.80
2023-05-05T09:45:21.033Z,21.50
2023-05-05T09:47:48.775Z,21.70
2023-05-05T09:50:19.179Z,21.50
2023-05-05T09:53:03.071Z,21.50
2023-05-05T09:55:33.418Z,21.40
2023-05-05T09:58:20.438Z,21.50
2023-05-05T10:00:48.171Z,21.80
2023-05-05T10:03:15.610Z,21.80
2023-05-05T10:05:56.879Z,21.70
2023-05-05T10:08:26.341Z,21.90
2023-05-05T10:11:07.628Z,21.90
2023-05-05T10:13:38.922Z,21.90
2023-05-05T10:16:06.753Z,22.10
2023-05-05T10:18:53.126Z,22.20
2023-05-05T10:21:21.957Z,22.00
2023-05-05T10:23:50.538Z,21.90
2023-05-05T10:26:17.856Z,21.90
2023-05-05T10:28:46.543Z,22.10
2023-05-05T10:31:58.764Z,22.00
2023-05-05T10:34:41.538Z,22.00
2023-05-05T10:37:09.155Z,22.00
2023-05-05T10:39:37.421Z,22.10
2023-05-05T10:42:05.173Z,22.30
2023-05-05T10:44:33.710Z,22.20
2023-05-05T10:47:02.284Z,22.20
2023-05-05T10:49:49.337Z,22.40
2023-05-05T10:52:19.239Z,22.50
2023-05-05T10:54:50.995Z,22.30
2023-05-05T10:57:19.705Z,22.30
2023-05-05T10:59:47.840Z,22.30
2023-05-05T11:02:28.429Z,22.30
2023-05-05T11:05:21.786Z,22.40
2023-05-05T11:07:50.459Z,22.50
2023-05-05T11:10:20.889Z,22.60
2023-05-05T11:13:03.064Z,22.70
2023-05-05T11:15:30.718Z,22.70
2023-05-05T11:17:58.939Z,22.70
2023-05-05T11:20:41.326Z,22.80
2023-05-05T11:23:08.616Z,22.50
2023-05-05T11:25:42.492Z,22.50
2023-05-05T11:28:14.113Z,22.70
2023-05-05T11:30:57.747Z,22.90
2023-05-05T11:33:32.342Z,23.00
2023-05-05T11:36:05.992Z,22.90
2023-05-05T11:38:40.163Z,22.80
2023-05-05T11:41:34.480Z,22.60
2023-05-05T11:44:21.233Z,22.90
2023-05-05T11:46:53.384Z,23.00
2023-05-05T11:49:31.891Z,22.90
2023-05-05T11:52:09.337Z,22.80
2023-05-05T11:54:38.353Z,22.90
2023-05-05T11:57:07.470Z,23.00
2023-05-05T11:59:37.272Z,23.10
2023-05-05T12:02:05.085Z,22.90
2023-05-05T12:04:32.809Z,23.20
2023-05-05T12:07:00.310Z,23.20
2023-05-05T12:09:27.827Z,23.20
2023-05-05T12:11:55.906Z,23.50
2023-05-05T12:14:23.830Z,23.40
2023-05-05T12:16:58.095Z,23.30
2023-05-05T12:19:30.408Z,23.10
2023-05-05T12:21:57.802Z,23.30
2023-05-05T12:24:25.389Z,23.40
2023-05-05T12:26:53.013Z,23.50
2023-05-05T12:29:29.404Z,23.40
2023-05-05T12:31:58.644Z,23.50
2023-05-05T12:34:26.806Z,23.60
2023-05-05T12:36:54.290Z,23.60
2023-05-05T12:39:22.023Z,23.70
2023-05-05T12:41:49.705Z,23.70
2023-05-05T12:44:17.229Z,23.70
2023-05-05T12:46:48.310Z,23.70
2023-05-05T12:49:15.857Z,23.50
2023-05-05T12:51:56.615Z,23.60
2023-05-05T12:54:25.307Z,23.70
2023-05-05T12:56:52.782Z,23.40
2023-05-05T12:59:22.891Z,23.40
2023-05-05T13:01:50.697Z,23.40
2023-05-05T13:04:18.257Z,23.40
2023-05-05T13:06:47.719Z,23.30
2023-05-05T13:09:25.310Z,23.50
2023-05-05T13:11:53.207Z,23.30
2023-05-05T13:14:20.951Z,23.20
2023-05-05T13:16:48.792Z,23.20
2023-05-05T13:19:16.279Z,23.30
2023-05-05T13:21:43.632Z,23.40
2023-05-05T13:24:21.244Z,23.40
2023-05-05T13:26:53.468Z,23.50
2023-05-05T13:29:20.674Z,23.40
2023-05-05T13:31:48.174Z,23.40
2023-05-05T13:34:15.784Z,23.50
2023-05-05T13:36:43.101Z,23.60
2023-05-05T13:39:10.390Z,23.50
2023-05-05T13:41:37.845Z,23.70
2023-05-05T13:44:05.507Z,23.70
2023-05-05T13:46:33.045Z,23.70
2023-05-05T13:49:00.708Z,23.70
2023-05-05T13:51:28.285Z,23.80
2023-05-05T13:53:55.944Z,23.90
2023-05-05T13:56:26.491Z,24.00
2023-05-05T13:58:54.673Z,23.80
2023-05-05T14:01:21.977Z,23.70
2023-05-05T14:03:49.502Z,23.70
2023-05-05T14:06:17.034Z,24.00
2023-05-05T14:08:44.592Z,24.10
2023-05-05T14:11:12.343Z,24.10
2023-05-05T14:13:39.994Z,24.20
2023-05-05T14:16:07.560Z,24.20
2023-05-05T14:18:35.286Z,24.40
2023-05-05T14:21:02.796Z,24.20
2023-05-05T14:23:32.718Z,24.20
2023-05-05T14:26:00.358Z,24.30
2023-05-05T14:28:27.797Z,24.40
2023-05-05T14:30:55.236Z,24.60
2023-05-05T14:33:22.630Z,24.40
2023-05-05T14:35:49.960Z,24.20
2023-05-05T14:38:17.662Z,24.10
2023-05-05T14:40:45.219Z,24.20
2023-05-05T14:43:12.604Z,24.10
2023-05-05T14:45:39.970Z,24.00
2023-05-05T14:48:07.536Z,23.80
2023-05-05T14:50:34.888Z,23.70
2023-05-05T14:53:02.227Z,23.80
2023-05-05T14:55:29.755Z,23.90
2023-05-05T14:57:57.199Z,23.90
2023-05-05T15:00:26.884Z,23.50
2023-05-05T15:02:54.457Z,23.60
2023-05-05T15:05:21.960Z,23.70
2023-05-05T15:07:49.648Z,23.40
2023-05-05T15:10:18.216Z,23.40
2023-05-05T15:12:47.173Z,23.30
2023-05-05T15:15:15.040Z,23.20
2023-05-05T15:17:42.338Z,23.00
2023-05-05T15:20:10.328Z,22.90
2023-05-05T15:22:37.587Z,22.90
2023-05-05T15:25:07.682Z,22.90
2023-05-05T15:27:36.400Z,22.90
2023-05-05T15:30:04.339Z,22.90
2023-05-05T15:32:31.736Z,22.80
2023-05-05T15:35:35.329Z,22.90
2023-05-05T15:38:03.159Z,22.90
2023-05-05T15:40:30.654Z,23.00
2023-05-05T15:42:58.118Z,22.80
2023-05-05T15:45:25.861Z,22.90
2023-05-05T15:47:54.231Z,22.90
2023-05-05T15:50:21.950Z,23.00
2023-05-05T15:52:50.150Z,23.10
2023-05-05T15:55:17.894Z,23.20
2023-05-05T15:57:45.357Z,23.20
2023-05-05T16:00:13.573Z,23.10
2023-05-05T16:02:41.123Z,23.00
2023-05-05T16:05:09.618Z,23.00
2023-05-05T16:07:37.396Z,23.00
2023-05-05T16:10:04.979Z,23.00
2023-05-05T16:12:32.448Z,23.00
2023-05-05T16:15:00.147Z,22.80
2023-05-05T16:17:27.437Z,22.80
2023-05-05T16:19:54.717Z,22.50
2023-05-05T16:22:22.481Z,22.70
2023-05-05T16:24:49.742Z,22.70
2023-05-05T16:27:17.233Z,22.50
2023-05-05T16:29:44.933Z,22.60
2023-05-05T16:32:35.724Z,22.60
2023-05-05T16:35:03.317Z,22.40
2023-05-05T16:37:30.734Z,22.60
2023-05-05T16:39:57.971Z,22.50
2023-05-05T16:42:46.289Z,22.40
2023-05-05T16:45:39.247Z,22.30
2023-05-05T16:48:09.034Z,22.30
2023-05-05T16:50:39.417Z,22.30
2023-05-05T16:53:10.602Z,22.20
2023-05-05T16:55:38.102Z,22.20
2023-05-05T16:58:05.289Z,22.10
2023-05-05T17:00:32.697Z,22.20
2023-05-05T17:03:00.627Z,22.20
2023-05-05T17:05:28.141Z,22.20
2023-05-05T17:07:55.674Z,22.20
2023-05-05T17:10:23.256Z,22.10
2023-05-05T17:12:50.576Z,21.90
2023-05-05T17:15:18.209Z,21.90
2023-05-05T17:17:45.405Z,21.80
2023-05-05T17:20:13.354Z,21.80
2023-05-05T17:22:41.057Z,21.70
2023-05-05T17:25:09.274Z,21.50
2023-05-05T17:27:37.088Z,21.50
2023-05-05T17:30:04.967Z,21.40
2023-05-05T17:32:32.628Z,21.30
2023-05-05T17:34:59.771Z,21.20
2023-05-05T17:37:27.528Z,21.20
2023-05-05T17:39:54.820Z,21.10
2023-05-05T17:42:27.308Z,21.10
2023-05-05T17:44:54.790Z,21.00
2023-05-05T17:47:22.630Z,20.90
2023-05-05T17:49:50.241Z,20.70
2023-05-05T17:52:17.722Z,20.50
2023-05-05T17:54:46.501Z,20.30
2023-05-05T17:57:14.205Z,20.10
2023-05-05T17:59:44.680Z,19.90
2023-05-05T18:02:12.124Z,19.90
2023-05-05T18:04:39.648Z,19.60
2023-05-05T18:07:07.086Z,19.50
2023-05-05T18:09:34.500Z,19.60
2023-05-05T18:12:01.821Z,19.40
2023-05-05T18:14:29.245Z,19.30
2023-05-05T18:16:56.714Z,19.00
2023-05-05T18:19:24.227Z,18.90
2023-05-05T18:21:52.976Z,18.70
2023-05-05T18:24:20.757Z,18.50
2023-05-05T18:26:49.694Z,18.50
2023-05-05T18:29:20.276Z,18.30
2023-05-05T18:31:52.124Z,18.10
2023-05-05T18:34:21.028Z,17.90
2023-05-05T18:36:48.370Z,17.90
2023-05-05T18:39:15.944Z,17.70
2023-05-05T18:41:43.347Z,17.70
2023-05-05T18:44:11.041Z,17.60
2023-05-05T18:46:38.566Z,17.50
2023-05-05T18:49:06.244Z,17.20
2023-05-05T18:51:33.910Z,17.10
2023-05-05T18:54:01.297Z,17.20
2023-05-05T18:56:28.657Z,17.00
2023-05-05T18:58:56.101Z,17.10
2023-05-05T19:01:23.921Z,17.10
2023-05-05T19:03:51.854Z,17.20
2023-05-05T19:06:19.567Z,16.90
2023-05-05T19:08:47.482Z,16.80
2023-05-05T19:11:15.387Z,16.70
2023-05-05T19:13:43.017Z,16.40
2023-05-05T19:16:11.691Z,16.10
2023-05-05T19:18:39.353Z,16.00
2023-05-05T19:21:06.657Z,15.80
2023-05-05T19:23:36.152Z,15.70
2023-05-05T19:26:06.710Z,15.50
2023-05-05T19:28:34.700Z,15.60
2023-05-05T19:31:02.428Z,16.00
2023-05-05T19:33:29.858Z,16.10
2023-05-05T19:35:57.435Z,16.40
2023-05-05T19:38:24.665Z,16.70
2023-05-05T19:40:51.971Z,16.70
2023-05-05T19:43:19.296Z,16.70
2023-05-05T19:45:46.632Z,16.40
2023-05-05T19:48:13.908Z,16.40
2023-05-05T19:50:41.544Z,16.20
2023-05-05T19:53:40.420Z,15.90
2023-05-05T19:56:07.668Z,15.90
2023-05-05T20:01:59.963Z,15.40
2023-05-05T20:05:30.227Z,15.70
2023-05-05T20:07:16.201Z,15.70
2023-05-05T20:09:43.602Z,15.70
2023-05-05T20:12:12.247Z,15.60
2023-05-05T20:14:39.964Z,15.60
2023-05-05T20:17:07.739Z,15.50
2023-05-05T20:19:35.057Z,15.20
2023-05-05T20:22:02.513Z,15.00
2023-05-05T20:24:30.187Z,14.90
2023-05-05T20:26:57.494Z,14.60
2023-05-05T20:29:24.964Z,14.40
2023-05-05T20:31:52.445Z,14.60
2023-05-05T20:34:20.011Z,14.90
2023-05-05T20:36:47.633Z,14.70
2023-05-05T20:39:16.031Z,15.00
2023-05-05T20:41:43.460Z,15.00
2023-05-05T20:44:10.781Z,14.90
2023-05-05T20:46:38.323Z,15.00
2023-05-05T20:49:05.879Z,14.90
2023-05-05T20:51:35.537Z,14.90
2023-05-05T20:54:03.276Z,14.90
2023-05-05T20:56:30.637Z,14.70
2023-05-05T20:58:58.149Z,14.60
2023-05-05T21:01:25.397Z,14.80
2023-05-05T21:03:53.304Z,14.80
2023-05-05T21:06:20.600Z,14.60
2023-05-05T21:08:48.172Z,14.40
2023-05-05T21:11:15.794Z,14.30
2023-05-05T21:13:43.363Z,14.40
2023-05-05T21:16:11.463Z,14.40
2023-05-05T21:18:39.037Z,14.40
2023-05-05T21:21:06.498Z,14.60
2023-05-05T21:23:33.926Z,14.30
2023-05-05T21:26:02.409Z,14.00
2023-05-05T21:28:29.828Z,14.00
2023-05-05T21:31:19.739Z,14.20
2023-05-05T21:33:44.674Z,14.30
2023-05-05T21:36:36.282Z,14.20
2023-05-05T21:42:17.064Z,13.90
2023-05-05T21:44:44.479Z,14.00
2023-05-05T21:47:12.081Z,14.10
2023-05-05T21:49:39.438Z,14.20
2023-05-05T21:52:06.905Z,14.30
2023-05-05T21:54:34.346Z,14.10
2023-05-05T21:57:01.859Z,14.00
2023-05-05T21:59:29.336Z,13.90
2023-05-05T22:01:56.982Z,14.00
2023-05-05T22:04:24.489Z,13.90
2023-05-05T22:06:51.926Z,13.90
2023-05-05T22:09:19.161Z,14.10
2023-05-05T22:11:46.930Z,14.00
2023-05-05T22:14:14.526Z,14.00
2023-05-05T22:16:41.890Z,14.20
2023-05-05T22:19:09.449Z,14.10
2023-05-05T22:21:37.198Z,13.90
2023-05-05T22:24:05.183Z,14.00
2023-05-05T22:26:32.771Z,14.20
2023-05-05T22:29:00.241Z,14.10
2023-05-05T22:31:27.589Z,14.40
2023-05-05T22:33:54.997Z,14.90
2023-05-05T22:36:23.478Z,15.20
2023-05-05T22:38:50.823Z,15.40
2023-05-05T22:41:18.433Z,15.60
2023-05-05T22:43:46.293Z,15.70
2023-05-05T22:46:14.267Z,15.80
2023-05-05T22:48:41.786Z,15.60
2023-05-05T22:51:09.164Z,15.70
2023-05-05T22:53:36.661Z,15.60
2023-05-05T22:56:05.026Z,15.50
2023-05-05T22:58:32.354Z,15.50
2023-05-05T23:00:59.896Z,15.60
2023-05-05T23:03:27.505Z,15.40
2023-05-05T23:05:54.628Z,15.10
2023-05-05T23:08:24.272Z,15.20
2023-05-05T23:10:51.840Z,15.10
2023-05-05T23:13:19.510Z,15.10
2023-05-05T23:15:47.043Z,15.10
2023-05-05T23:18:14.265Z,15.00
2023-05-05T23:20:42.673Z,15.10
2023-05-05T23:23:10.144Z,15.00
2023-05-05T23:25:37.520Z,14.90
2023-05-05T23:28:04.964Z,14.80
2023-05-05T23:30:32.478Z,14.90
2023-05-05T23:33:01.284Z,15.00
2023-05-05T23:35:28.868Z,15.00
2023-05-05T23:37:56.240Z,15.00
2023-05-05T23:40:23.547Z,15.00
2023-05-05T23:42:51.197Z,14.90
2023-05-05T23:45:19.634Z,14.70
2023-05-05T23:47:46.869Z,14.70
2023-05-05T23:50:14.150Z,14.80
2023-05-05T23:52:42.139Z,14.80
2023-05-05T23:55:10.860Z,14.80
2023-05-05T23:57:38.371Z,14.90
